Time;durP1;ratioP1;P1;durP2;ratioP2;P2;SDS_P1;SDS_P2;PMS_P1;PMS_P2;Temp;Humidity;BMP_temperature;BMP_pressure;BME280_temperature;BME280_humidity;BME280_pressure;Samples;Min_cycle;Max_cycle;Signal;HPM_P1;HPM_P2
2021/08/15 00:01:47;;;;;;;;;7.00;6.00;;;;;25.51;41.12;101282.00;5001511;28;45220;-81
2021/08/15 00:04:12;;;;;;;;;7.75;6.25;;;;;25.50;41.13;101295.78;5001047;28;51096;-82
2021/08/15 00:06:37;;;;;;;;;5.25;5.25;;;;;25.47;41.29;101293.31;5001380;28;45213;-81
2021/08/15 00:09:03;;;;;;;;;6.75;5.50;;;;;25.43;41.39;101295.44;5001244;28;45143;-81
2021/08/15 00:11:28;;;;;;;;;5.75;5.75;;;;;25.37;41.39;101287.78;5001315;28;45472;-81
2021/08/15 00:13:54;;;;;;;;;8.00;7.00;;;;;25.30;42.03;101268.31;5001165;28;47932;-82
2021/08/15 00:16:19;;;;;;;;;7.00;7.00;;;;;25.33;41.60;101278.13;5001239;28;45405;-81
2021/08/15 00:18:44;;;;;;;;;8.00;8.00;;;;;25.29;42.10;101280.25;5001312;28;45272;-82
2021/08/15 00:21:12;;;;;;;;;8.00;8.00;;;;;25.27;42.04;101275.91;5001192;28;45205;-82
2021/08/15 00:23:38;;;;;;;;;6.25;5.00;;;;;25.26;42.44;101279.59;5000826;28;47151;-81
2021/08/15 00:26:03;;;;;;;;;6.50;5.25;;;;;25.20;42.55;101264.63;5001141;28;45406;-82
2021/08/15 00:28:28;;;;;;;;;9.50;7.25;;;;;25.20;42.16;101271.94;5001191;28;45435;-81
2021/08/15 00:30:54;;;;;;;;;8.00;8.00;;;;;25.12;42.56;101256.22;5001221;28;45412;-82
2021/08/15 00:33:19;;;;;;;;;6.50;6.50;;;;;25.13;43.02;101258.81;5000906;28;46122;-81
2021/08/15 00:35:44;;;;;;;;;7.00;6.00;;;;;25.10;42.91;101266.41;5001029;28;45228;-82
2021/08/15 00:38:10;;;;;;;;;5.50;4.75;;;;;25.07;42.43;101267.53;5001237;28;45213;-81
2021/08/15 00:40:35;;;;;;;;;9.00;8.75;;;;;25.04;42.56;101264.19;5000604;28;45394;-82
2021/08/15 00:43:01;;;;;;;;;7.25;6.75;;;;;25.01;42.61;101264.44;5000670;28;46033;-81
2021/08/15 00:45:26;;;;;;;;;6.75;5.25;;;;;24.98;43.47;101270.19;5000698;28;45263;-81
2021/08/15 00:47:51;;;;;;;;;6.75;6.75;;;;;24.93;42.91;101263.25;5000892;28;45311;-81
2021/08/15 00:50:19;;;;;;;;;11.00;8.25;;;;;24.92;43.32;101271.56;5000827;28;45294;-82
2021/08/15 00:52:44;;;;;;;;;5.50;4.75;;;;;24.86;43.25;101252.97;5000620;28;46062;-82
2021/08/15 00:55:11;;;;;;;;;6.75;6.25;;;;;24.88;42.95;101268.25;5000238;28;45303;-82
2021/08/15 00:57:41;;;;;;;;;8.00;8.00;;;;;24.84;43.37;101261.31;5000744;28;45264;-82
2021/08/15 01:00:09;;;;;;;;;6.25;6.25;;;;;24.82;43.66;101262.44;5000616;28;45415;-81
2021/08/15 01:02:35;;;;;;;;;5.50;5.50;;;;;24.79;43.37;101258.06;5000288;28;47665;-82
2021/08/15 01:05:01;;;;;;;;;8.25;5.75;;;;;24.77;43.49;101251.88;5000447;28;45470;-81
2021/08/15 01:07:27;;;;;;;;;6.50;6.00;;;;;24.74;43.51;101258.50;5000686;28;45500;-81
2021/08/15 01:09:52;;;;;;;;;5.50;5.50;;;;;24.74;44.20;101257.59;5000343;28;45272;-81
2021/08/15 01:12:18;;;;;;;;;7.75;7.25;;;;;24.66;44.24;101250.09;5000357;28;45308;-82
2021/08/15 01:14:45;;;;;;;;;6.75;6.25;;;;;24.66;44.10;101246.47;5000460;28;45236;-82
2021/08/15 01:17:11;;;;;;;;;8.50;8.50;;;;;24.61;44.08;101249.59;5000536;28;45328;-81
2021/08/15 01:19:36;;;;;;;;;9.75;8.75;;;;;24.60;44.69;101251.44;4999528;28;45454;-80
2021/08/15 01:22:02;;;;;;;;;6.75;6.00;;;;;24.58;44.66;101242.53;5000210;28;46092;-82
2021/08/15 01:24:28;;;;;;;;;7.00;7.00;;;;;24.56;44.58;101244.53;4999923;28;45734;-82
2021/08/15 01:26:54;;;;;;;;;4.75;4.75;;;;;24.56;44.67;101236.34;5000326;28;45309;-82
2021/08/15 01:29:22;;;;;;;;;8.00;8.00;;;;;24.54;44.32;101237.41;5000097;28;45522;-82
2021/08/15 01:31:48;;;;;;;;;7.25;6.50;;;;;24.47;44.77;101236.19;5000385;28;45321;-82
2021/08/15 01:34:13;;;;;;;;;10.75;7.00;;;;;24.48;44.52;101233.34;4999931;28;45197;-81
2021/08/15 01:36:38;;;;;;;;;7.50;7.50;;;;;24.45;44.53;101236.31;5000264;28;45232;-81
2021/08/15 01:39:04;;;;;;;;;9.75;8.00;;;;;24.42;44.55;101236.56;4999936;28;45578;-81
2021/08/15 01:41:29;;;;;;;;;7.25;6.25;;;;;24.35;44.95;101219.84;4998599;28;46775;-81
2021/08/15 01:43:57;;;;;;;;;9.00;8.00;;;;;24.37;45.05;101225.19;4999885;28;45443;-81
2021/08/15 01:46:31;;;;;;;;;7.00;5.75;;;;;24.35;45.59;101229.91;5000204;28;45508;-81
2021/08/15 01:48:58;;;;;;;;;6.75;6.00;;;;;24.34;45.38;101219.97;4999815;28;46499;-81
2021/08/15 01:51:24;;;;;;;;;8.50;7.75;;;;;24.32;45.44;101220.09;5000036;28;46304;-81
2021/08/15 01:53:52;;;;;;;;;9.00;8.75;;;;;24.29;45.55;101225.84;4999631;28;45259;-81
2021/08/15 01:56:18;;;;;;;;;8.00;8.00;;;;;24.27;45.72;101216.03;4999988;28;45401;-82
2021/08/15 01:58:44;;;;;;;;;8.25;8.25;;;;;24.25;45.49;101223.47;4998476;28;45403;-81
2021/08/15 02:01:20;;;;;;;;;8.25;5.00;;;;;24.17;45.21;101210.47;4999903;28;45207;-81
2021/08/15 02:03:47;;;;;;;;;6.25;6.25;;;;;24.20;45.40;101213.81;4999737;28;45607;-81
2021/08/15 02:06:13;;;;;;;;;6.00;6.00;;;;;24.20;45.85;101212.94;4999878;28;45328;-81
2021/08/15 02:08:39;;;;;;;;;7.00;7.00;;;;;24.13;45.65;101204.41;4999542;28;45331;-81
2021/08/15 02:11:04;;;;;;;;;5.75;5.75;;;;;24.12;46.19;101207.25;4999676;28;45508;-81
2021/08/15 02:13:30;;;;;;;;;7.75;7.00;;;;;24.13;46.05;101219.91;4999739;28;45360;-82
2021/08/15 02:15:55;;;;;;;;;8.50;7.00;;;;;24.11;46.21;101211.84;4999779;28;45302;-81
2021/08/15 02:18:20;;;;;;;;;6.75;5.25;;;;;24.09;46.17;101208.41;4999457;28;45469;-82
2021/08/15 02:20:46;;;;;;;;;8.50;7.50;;;;;24.03;46.45;101198.84;4999348;28;50292;-80
2021/08/15 02:23:12;;;;;;;;;9.25;8.00;;;;;24.04;46.34;101205.19;4999281;28;45315;-82
2021/08/15 02:25:37;;;;;;;;;9.25;9.25;;;;;24.04;46.31;101199.72;4999738;28;45435;-80
2021/08/15 02:28:04;;;;;;;;;9.50;9.00;;;;;24.04;46.16;101199.72;4999188;28;45429;-80
2021/08/15 02:30:29;;;;;;;;;11.00;10.00;;;;;24.02;46.32;101190.78;4999423;28;46282;-82
2021/08/15 02:32:55;;;;;;;;;11.00;9.00;;;;;24.00;46.62;101187.31;5001989;28;45225;-82
2021/08/15 02:35:21;;;;;;;;;12.75;10.25;;;;;23.99;46.69;101178.28;5003117;28;45399;-82
2021/08/15 02:37:49;;;;;;;;;8.50;7.25;;;;;23.99;46.21;101181.00;5002767;28;45242;-81
2021/08/15 02:40:16;;;;;;;;;11.00;9.75;;;;;23.99;46.47;101185.56;5002444;28;45323;-82
2021/08/15 02:42:44;;;;;;;;;7.00;7.00;;;;;23.95;46.44;101181.38;5002489;28;45596;-82
2021/08/15 02:45:12;;;;;;;;;11.00;11.00;;;;;23.95;46.73;101186.84;5002847;28;45281;-81
2021/08/15 02:47:38;;;;;;;;;9.50;9.50;;;;;23.93;46.62;101175.19;5002576;28;45324;-82
2021/08/15 02:50:05;;;;;;;;;8.25;8.25;;;;;23.95;46.88;101181.38;5002595;28;45378;-82
2021/08/15 02:52:30;;;;;;;;;10.25;8.50;;;;;23.93;46.41;101181.50;5002573;28;45529;-81
2021/08/15 02:54:55;;;;;;;;;6.75;6.75;;;;;23.90;46.99;101170.84;5002189;28;45307;-81
2021/08/15 02:57:21;;;;;;;;;7.25;7.25;;;;;23.88;46.70;101170.13;5002386;28;45306;-81
2021/08/15 02:59:46;;;;;;;;;7.25;6.75;;;;;23.86;46.76;101162.06;5002448;28;46888;-80
2021/08/15 03:02:14;;;;;;;;;9.75;8.00;;;;;23.87;46.88;101160.19;5002129;28;45419;-81
2021/08/15 03:04:40;;;;;;;;;9.00;7.00;;;;;23.85;46.84;101152.13;5002772;28;45220;-81
2021/08/15 03:07:06;;;;;;;;;8.00;6.50;;;;;23.84;47.08;101155.88;5002116;28;45240;-82
2021/08/15 03:09:31;;;;;;;;;7.75;6.50;;;;;23.83;47.07;101151.41;5002135;28;45223;-81
2021/08/15 03:11:57;;;;;;;;;7.50;7.25;;;;;23.81;47.30;101156.09;5002098;28;45426;-81
2021/08/15 03:14:22;;;;;;;;;8.00;7.00;;;;;23.80;47.29;101154.34;5002409;28;45213;-80
2021/08/15 03:16:48;;;;;;;;;8.50;8.00;;;;;23.79;47.27;101154.47;5002132;28;45411;-81
2021/08/15 03:19:14;;;;;;;;;6.00;6.00;;;;;23.77;47.47;101154.63;5002086;28;46491;-81
2021/08/15 03:21:39;;;;;;;;;10.25;6.50;;;;;23.75;47.73;101151.13;5001891;28;45315;-82
2021/08/15 03:24:05;;;;;;;;;6.25;6.00;;;;;23.74;47.67;101149.41;5001957;28;45470;-80
2021/08/15 03:26:31;;;;;;;;;6.00;6.00;;;;;23.71;47.76;101146.06;5001830;28;45352;-81
2021/08/15 03:28:57;;;;;;;;;7.25;7.25;;;;;23.72;47.93;101143.19;5002070;28;46256;-82
2021/08/15 03:31:22;;;;;;;;;5.25;5.25;;;;;23.70;47.75;101138.88;5001931;28;45371;-80
2021/08/15 03:33:48;;;;;;;;;7.25;6.50;;;;;23.68;48.04;101142.59;5002063;28;45352;-80
2021/08/15 03:36:13;;;;;;;;;7.50;6.50;;;;;23.59;47.83;101123.38;5001842;28;45467;-80
2021/08/15 03:38:39;;;;;;;;;7.00;7.00;;;;;23.62;47.79;101140.38;5001717;28;46302;-80
2021/08/15 03:41:05;;;;;;;;;6.25;5.25;;;;;23.61;47.97;101138.63;5001683;28;45402;-81
2021/08/15 03:43:30;;;;;;;;;6.00;6.00;;;;;23.62;48.13;101145.84;5001310;28;45231;-81
2021/08/15 03:45:56;;;;;;;;;9.75;8.25;;;;;23.60;48.37;101145.06;5001516;28;45624;-81
2021/08/15 03:48:21;;;;;;;;;7.00;7.00;;;;;23.58;48.38;101151.66;5001803;28;45419;-81
2021/08/15 03:50:46;;;;;;;;;8.25;7.75;;;;;23.56;48.57;101140.88;5001461;28;45244;-80
2021/08/15 03:53:12;;;;;;;;;8.75;7.00;;;;;23.56;48.46;101149.03;5001720;28;45387;-80
2021/08/15 03:55:37;;;;;;;;;7.75;7.75;;;;;23.53;48.38;101143.84;5001464;28;45266;-81
2021/08/15 03:58:05;;;;;;;;;8.25;6.25;;;;;23.52;48.50;101142.09;5001506;28;45162;-81
2021/08/15 04:00:31;;;;;;;;;7.75;7.25;;;;;23.51;48.48;101145.81;5001496;28;45245;-81
2021/08/15 04:02:56;;;;;;;;;9.00;7.50;;;;;23.50;48.53;101138.63;5001411;28;45465;-81
2021/08/15 04:05:21;;;;;;;;;8.00;6.50;;;;;23.48;48.65;101135.16;5001423;28;45307;-81
2021/08/15 04:07:46;;;;;;;;;7.75;6.50;;;;;23.46;48.78;101135.28;5001177;28;50380;-79
2021/08/15 04:10:12;;;;;;;;;10.75;8.00;;;;;23.45;48.78;101135.41;5001118;28;45288;-81
2021/08/15 04:12:37;;;;;;;;;7.50;7.50;;;;;23.44;48.82;101133.69;5001528;28;45485;-79
2021/08/15 04:15:03;;;;;;;;;9.25;8.75;;;;;23.42;48.81;101136.53;5001228;28;45232;-80
2021/08/15 04:17:28;;;;;;;;;7.75;7.75;;;;;23.40;48.93;101135.78;5001205;28;45200;-80
2021/08/15 04:19:54;;;;;;;;;9.50;8.25;;;;;23.40;49.01;101140.38;5001172;28;45224;-81
2021/08/15 04:22:19;;;;;;;;;7.75;7.25;;;;;23.39;49.12;101133.19;5001188;28;45355;-80
2021/08/15 04:24:44;;;;;;;;;6.75;5.25;;;;;23.35;48.86;101131.69;5000952;28;45419;-79
2021/08/15 04:27:10;;;;;;;;;9.25;7.75;;;;;23.37;48.96;101125.16;5000979;28;46272;-79
2021/08/15 04:29:38;;;;;;;;;7.25;7.00;;;;;23.35;48.98;101121.66;5001017;28;45224;-80
2021/08/15 04:32:03;;;;;;;;;7.00;5.50;;;;;23.33;49.12;101118.22;5001265;28;45316;-80
2021/08/15 04:34:28;;;;;;;;;7.00;5.25;;;;;23.31;49.17;101104.72;5000885;28;45402;-80
2021/08/15 04:36:54;;;;;;;;;7.00;7.00;;;;;23.29;49.47;101105.84;5000943;28;46075;-80
2021/08/15 04:39:19;;;;;;;;;7.00;6.00;;;;;23.29;49.08;101111.28;5000686;28;45351;-80
2021/08/15 04:41:44;;;;;;;;;7.00;7.00;;;;;23.21;49.19;101101.00;5000967;28;45351;-79
2021/08/15 04:44:10;;;;;;;;;6.50;6.50;;;;;23.28;49.29;101113.13;5000788;28;45339;-80
2021/08/15 04:46:35;;;;;;;;;6.75;6.75;;;;;23.26;49.63;101112.38;5000908;28;45414;-81
2021/08/15 04:49:01;;;;;;;;;9.50;7.00;;;;;23.26;49.50;101123.28;5000554;28;45311;-81
2021/08/15 04:51:26;;;;;;;;;9.50;8.00;;;;;23.25;49.75;101118.81;5001021;28;45348;-80
2021/08/15 04:53:52;;;;;;;;;12.50;8.00;;;;;23.24;49.74;101117.09;4999435;28;45455;-81
2021/08/15 04:56:17;;;;;;;;;8.75;8.00;;;;;23.23;49.77;101118.06;5000567;28;48056;-80
2021/08/15 04:58:42;;;;;;;;;7.50;7.00;;;;;23.18;49.86;101103.97;5000468;28;45279;-80
2021/08/15 05:01:07;;;;;;;;;6.75;6.75;;;;;23.20;49.88;101112.88;5001024;28;45231;-80
2021/08/15 05:03:33;;;;;;;;;8.75;7.00;;;;;23.18;50.18;101114.84;5000215;28;45523;-80
2021/08/15 05:05:58;;;;;;;;;9.25;8.00;;;;;23.17;50.26;101115.84;5000723;28;46110;-79
2021/08/15 05:08:23;;;;;;;;;8.00;7.00;;;;;23.13;50.33;101109.75;5000104;28;45348;-79
2021/08/15 05:10:49;;;;;;;;;6.25;6.00;;;;;23.12;50.45;101101.72;5000565;28;45225;-80
2021/08/15 05:13:14;;;;;;;;;10.25;8.50;;;;;23.12;50.27;101104.44;5000477;28;45391;-81
2021/08/15 05:15:40;;;;;;;;;7.25;7.25;;;;;23.17;50.47;101118.59;5000407;28;45912;-80
2021/08/15 05:18:06;;;;;;;;;7.75;6.75;;;;;23.08;50.81;101114.72;5000198;28;45308;-81
2021/08/15 05:20:31;;;;;;;;;7.75;7.50;;;;;23.11;50.46;101109.03;5000625;28;45406;-79
2021/08/15 05:22:57;;;;;;;;;8.00;6.00;;;;;23.05;50.80;101100.44;5000155;28;45182;-79
2021/08/15 05:25:24;;;;;;;;;7.50;6.00;;;;;23.12;50.63;101108.06;5000041;28;47035;-80
2021/08/15 05:27:49;;;;;;;;;6.50;6.50;;;;;23.13;50.80;101111.63;5000128;28;45542;-79
2021/08/15 05:30:15;;;;;;;;;7.00;7.00;;;;;23.12;50.86;101116.22;5000380;28;45314;-80
2021/08/15 05:32:42;;;;;;;;;7.75;7.75;;;;;23.12;50.86;101109.88;4999944;28;45516;-80
2021/08/15 05:35:08;;;;;;;;;8.00;7.25;;;;;23.08;50.95;101101.09;5000173;28;46341;-81
2021/08/15 05:37:33;;;;;;;;;7.75;6.00;;;;;23.12;51.21;101109.88;5000038;28;45290;-80
2021/08/15 05:39:59;;;;;;;;;6.00;6.00;;;;;23.13;51.10;101111.63;5000170;28;45828;-79
2021/08/15 05:42:24;;;;;;;;;8.50;6.00;;;;;23.11;50.95;101105.44;4999986;28;45233;-80
2021/08/15 05:44:49;;;;;;;;;7.00;7.00;;;;;23.13;51.04;101100.75;5000063;28;45240;-79
2021/08/15 05:47:15;;;;;;;;;6.25;5.00;;;;;23.11;51.24;101098.13;4999880;28;45550;-79
2021/08/15 05:49:40;;;;;;;;;7.50;5.50;;;;;23.12;51.15;101104.44;5000189;28;45301;-80
2021/08/15 05:52:05;;;;;;;;;8.50;8.50;;;;;23.11;51.25;101102.72;4999877;28;45233;-79
2021/08/15 05:54:31;;;;;;;;;6.75;6.75;;;;;23.11;51.60;101109.03;4999561;28;45213;-80
2021/08/15 05:56:56;;;;;;;;;6.50;6.50;;;;;23.11;51.53;101103.59;4999747;28;45252;-81
2021/08/15 05:59:21;;;;;;;;;8.50;7.00;;;;;23.11;51.58;101102.72;5000025;28;45189;-81
2021/08/15 06:01:47;;;;;;;;;6.00;6.00;;;;;23.09;51.63;101099.25;4999938;28;45378;-81
2021/08/15 06:04:12;;;;;;;;;6.50;5.25;;;;;23.12;51.53;101115.31;4999649;28;46100;-80
2021/08/15 06:06:37;;;;;;;;;8.25;5.25;;;;;23.09;51.59;101116.47;5002290;28;45223;-79
2021/08/15 06:09:03;;;;;;;;;7.50;6.50;;;;;23.06;51.65;101102.19;5003354;28;45217;-80
2021/08/15 06:11:28;;;;;;;;;7.25;6.25;;;;;23.15;51.63;101111.50;5003113;28;45217;-80
2021/08/15 06:13:57;;;;;;;;;7.25;7.00;;;;;23.10;51.28;101101.88;5003148;28;46247;-80
2021/08/15 06:16:22;;;;;;;;;9.00;7.75;;;;;23.13;51.20;101108.91;5003052;28;45355;-79
2021/08/15 06:18:47;;;;;;;;;7.00;7.00;;;;;23.06;51.47;101094.91;5003326;28;45396;-81
2021/08/15 06:21:13;;;;;;;;;5.50;5.25;;;;;23.11;51.57;101102.72;5003033;28;49443;-81
2021/08/15 06:23:38;;;;;;;;;8.75;6.25;;;;;23.12;51.53;101101.72;5002738;28;45318;-80
2021/08/15 06:26:04;;;;;;;;;7.00;7.00;;;;;23.17;51.25;101113.13;5003191;28;45442;-80
2021/08/15 06:28:30;;;;;;;;;8.00;7.00;;;;;23.19;51.02;101115.72;5003091;28;45288;-79
2021/08/15 06:30:55;;;;;;;;;7.75;5.25;;;;;23.22;51.45;101119.09;5003114;28;45145;-80
2021/08/15 06:33:20;;;;;;;;;5.75;5.75;;;;;23.21;50.68;101113.75;5002634;28;46095;-81
2021/08/15 06:35:46;;;;;;;;;8.25;7.00;;;;;23.21;50.81;101111.03;5002878;28;45716;-79
2021/08/15 06:38:11;;;;;;;;;8.00;6.00;;;;;23.24;51.25;101119.81;5002553;28;45493;-79
2021/08/15 06:40:36;;;;;;;;;6.50;6.50;;;;;23.24;51.00;101117.09;5001510;28;45248;-80
2021/08/15 06:43:10;;;;;;;;;6.25;6.25;;;;;23.24;51.14;101102.63;5002418;28;45419;-80
2021/08/15 06:45:36;;;;;;;;;11.00;6.50;;;;;23.25;50.80;101110.63;5002844;28;45455;-81
2021/08/15 06:48:02;;;;;;;;;11.75;6.25;;;;;23.22;50.77;101101.84;5002844;28;45296;-82
2021/08/15 06:50:28;;;;;;;;;6.50;5.75;;;;;23.25;51.11;101110.63;5002722;28;45372;-82
2021/08/15 06:52:53;;;;;;;;;8.50;7.50;;;;;23.24;51.02;101098.03;5002502;28;46111;-82
2021/08/15 06:55:19;;;;;;;;;7.00;5.50;;;;;23.31;51.25;101096.53;5002230;28;45407;-81
2021/08/15 06:57:44;;;;;;;;;9.50;6.00;;;;;23.33;51.19;101096.41;5002723;28;45482;-81
2021/08/15 07:00:10;;;;;;;;;6.75;6.00;;;;;23.33;51.13;101092.84;5002224;28;50681;-81
2021/08/15 07:02:37;;;;;;;;;6.25;5.50;;;;;23.37;50.84;101100.63;5002182;28;46244;-81
2021/08/15 07:05:05;;;;;;;;;6.50;6.00;;;;;23.39;50.62;101109.53;5002297;28;46674;-82
2021/08/15 07:07:30;;;;;;;;;7.25;5.25;;;;;23.38;51.33;101098.78;5002451;28;45400;-80
2021/08/15 07:09:55;;;;;;;;;7.00;7.00;;;;;23.43;51.19;101105.56;5002020;28;48119;-82
2021/08/15 07:12:21;;;;;;;;;7.00;6.25;;;;;23.42;51.26;101094.78;5002212;28;46215;-82
2021/08/15 07:14:46;;;;;;;;;8.00;8.00;;;;;23.44;51.16;101101.88;5002211;28;45230;-82
2021/08/15 07:17:11;;;;;;;;;8.00;7.25;;;;;23.52;51.23;101108.53;5001452;28;45284;-82
2021/08/15 07:19:36;;;;;;;;;7.00;7.00;;;;;23.54;51.43;101114.72;5002146;28;45288;-83
2021/08/15 07:22:02;;;;;;;;;8.50;8.00;;;;;23.56;51.41;101119.06;5001946;28;46169;-80
2021/08/15 07:24:28;;;;;;;;;5.75;5.75;;;;;23.55;51.00;101103.69;5001769;28;45260;-82
2021/08/15 07:26:56;;;;;;;;;7.00;6.75;;;;;23.61;51.03;101111.38;5002315;28;45409;-82
2021/08/15 07:29:21;;;;;;;;;6.50;6.25;;;;;23.63;50.52;101112.13;5002160;28;45315;-83
2021/08/15 07:31:46;;;;;;;;;7.50;7.50;;;;;23.65;50.38;101114.72;5001787;28;50190;-82
2021/08/15 07:34:12;;;;;;;;;6.00;6.00;;;;;23.67;50.31;101113.63;5001686;28;45464;-82
2021/08/15 07:36:37;;;;;;;;;6.75;6.00;;;;;23.72;50.85;101106.91;5002099;28;45450;-83
2021/08/15 07:39:02;;;;;;;;;7.25;5.25;;;;;23.76;50.31;101109.25;5001818;28;45311;-83
2021/08/15 07:41:28;;;;;;;;;9.50;9.50;;;;;23.80;50.87;101109.88;5001697;28;49427;-82
2021/08/15 07:43:53;;;;;;;;;8.25;7.75;;;;;23.81;50.50;101104.28;5001639;28;45314;-81
2021/08/15 07:46:18;;;;;;;;;5.75;5.75;;;;;23.87;50.42;101100.22;5002268;28;45320;-82
2021/08/15 07:48:44;;;;;;;;;7.75;7.75;;;;;23.93;50.09;101105.16;5001482;28;45325;-82
2021/08/15 07:51:10;;;;;;;;;6.75;6.75;;;;;23.98;50.70;101110.25;5001771;28;45894;-82
2021/08/15 07:53:35;;;;;;;;;10.75;10.75;;;;;24.02;50.18;101103.53;5001342;28;45324;-82
2021/08/15 07:56:01;;;;;;;;;7.50;7.50;;;;;24.08;50.27;101099.44;5001538;28;45434;-83
2021/08/15 07:58:26;;;;;;;;;9.50;7.50;;;;;24.16;50.41;101111.44;5001487;28;45655;-83
2021/08/15 08:00:52;;;;;;;;;9.50;7.50;;;;;24.23;50.87;101109.06;5001445;28;46381;-84
2021/08/15 08:03:18;;;;;;;;;8.00;7.00;;;;;24.29;50.12;101110.38;5001269;28;45138;-83
2021/08/15 08:05:44;;;;;;;;;7.50;7.50;;;;;24.34;49.48;101102.66;5001801;28;45340;-85
2021/08/15 08:08:10;;;;;;;;;6.50;6.50;;;;;24.33;49.73;101088.19;5001002;28;45317;-82
2021/08/15 08:10:36;;;;;;;;;9.00;7.75;;;;;24.40;49.69;101086.66;5001279;28;46399;-83
2021/08/15 08:13:01;;;;;;;;;7.00;7.00;;;;;24.48;49.49;101096.91;5001333;28;45620;-82
2021/08/15 08:15:27;;;;;;;;;7.25;6.00;;;;;24.53;49.04;101094.66;5001664;28;45335;-83
2021/08/15 08:17:52;;;;;;;;;7.50;6.50;;;;;24.55;49.51;101087.22;5001188;28;45303;-83
2021/08/15 08:20:20;;;;;;;;;9.00;9.00;;;;;24.64;49.49;101093.78;5001329;28;45301;-82
2021/08/15 08:22:46;;;;;;;;;12.75;8.25;;;;;24.67;49.33;101081.72;5001152;28;45445;-82
2021/08/15 08:25:12;;;;;;;;;12.50;9.50;;;;;24.74;50.27;101086.50;5001061;28;45319;-83
2021/08/15 08:27:37;;;;;;;;;9.75;9.25;;;;;24.82;50.32;101087.69;5001072;28;45376;-83
2021/08/15 08:30:04;;;;;;;;;10.00;9.00;;;;;24.87;49.05;101083.56;5001092;28;45249;-84
2021/08/15 08:32:29;;;;;;;;;8.50;8.50;;;;;24.90;48.85;101076.97;5000737;28;45450;-83
2021/08/15 08:34:55;;;;;;;;;6.75;6.25;;;;;24.96;48.65;101079.19;5001208;28;45302;-83
2021/08/15 08:37:21;;;;;;;;;9.75;9.00;;;;;24.97;48.20;101075.44;5001070;28;45374;-84
2021/08/15 08:39:47;;;;;;;;;9.75;8.50;;;;;25.01;48.95;101079.63;5000610;28;46076;-82
2021/08/15 08:42:14;;;;;;;;;12.25;9.00;;;;;25.06;48.55;101085.56;5000789;28;45248;-84
2021/08/15 08:44:40;;;;;;;;;10.75;9.00;;;;;25.05;48.86;101072.88;5001091;28;45237;-84
2021/08/15 08:47:08;;;;;;;;;9.75;9.00;;;;;25.15;48.09;101081.13;5000897;28;45239;-84
2021/08/15 08:49:35;;;;;;;;;7.00;7.00;;;;;25.19;48.28;101074.38;5000689;28;45447;-84
2021/08/15 08:52:01;;;;;;;;;12.00;9.50;;;;;25.22;49.55;101065.91;5000736;28;45323;-82
2021/08/15 08:54:27;;;;;;;;;10.75;10.75;;;;;25.32;49.24;101074.19;5000423;28;45434;-81
2021/08/15 08:56:53;;;;;;;;;11.50;9.75;;;;;25.38;48.21;101078.25;5000419;28;45887;-83
2021/08/15 08:59:19;;;;;;;;;11.00;10.00;;;;;25.42;48.62;101074.22;5000768;28;45237;-83
2021/08/15 09:01:44;;;;;;;;;10.00;10.00;;;;;25.43;48.43;101074.09;5000295;28;45239;-82
2021/08/15 09:04:10;;;;;;;;;11.50;11.00;;;;;25.48;48.73;101062.75;5000668;28;45323;-82
2021/08/15 09:06:39;;;;;;;;;12.50;12.50;;;;;25.55;49.37;101066.66;4999127;28;45604;-82
2021/08/15 09:09:16;;;;;;;;;10.25;10.25;;;;;25.63;48.79;101064.09;5000350;28;45478;-83
2021/08/15 09:11:44;;;;;;;;;13.50;11.00;;;;;25.71;48.34;101063.41;5000210;28;45359;-82
2021/08/15 09:14:15;;;;;;;;;10.50;9.00;;;;;25.76;48.24;101061.09;5000593;28;45331;-83
2021/08/15 09:16:53;;;;;;;;;12.00;11.25;;;;;25.81;48.81;101060.66;5000313;28;45371;-82
2021/08/15 09:19:35;;;;;;;;;10.00;9.50;;;;;25.88;49.13;101056.38;5000171;28;45542;-83
2021/08/15 09:22:26;;;;;;;;;10.75;9.00;;;;;25.95;48.60;101060.28;5000355;28;45547;-83
2021/08/15 09:24:54;;;;;;;;;9.00;8.50;;;;;25.99;48.52;101041.72;5000094;28;45368;-84
2021/08/15 09:27:31;;;;;;;;;9.25;9.25;;;;;26.06;48.80;101049.22;5000283;28;45332;-83
2021/08/15 09:30:16;;;;;;;;;15.25;13.75;;;;;26.14;48.29;101047.63;5000359;28;45375;-82
2021/08/15 09:33:02;;;;;;;;;11.25;11.25;;;;;26.18;49.23;101039.00;4999895;28;45281;-82
2021/08/15 09:35:35;;;;;;;;;12.75;12.75;;;;;26.28;48.86;101032.63;5000404;28;45341;-82
2021/08/15 09:38:03;;;;;;;;;14.75;12.75;;;;;26.30;49.26;101041.59;4999671;28;45308;-83
2021/08/15 09:40:32;;;;;;;;;14.50;12.25;;;;;26.31;48.87;101025.03;5002650;28;45375;-83
2021/08/15 09:42:59;;;;;;;;;11.00;10.50;;;;;26.40;49.64;101032.34;5006468;28;45265;-83
2021/08/15 09:45:42;;;;;;;;;15.00;15.00;;;;;26.42;49.56;101029.47;5006740;28;45339;-84
2021/08/15 09:48:28;;;;;;;;;14.75;12.25;;;;;26.52;49.78;101032.19;5006476;28;45326;-80
2021/08/15 09:51:19;;;;;;;;;16.75;14.25;;;;;26.60;49.93;101029.59;5006367;28;47156;-81
2021/08/15 09:53:53;;;;;;;;;16.00;14.00;;;;;26.69;49.75;101030.59;5006438;28;45631;-81
2021/08/15 09:56:39;;;;;;;;;13.50;13.50;;;;;26.75;49.80;101032.75;5005195;28;45292;-82
2021/08/15 09:59:15;;;;;;;;;15.00;14.00;;;;;26.79;48.81;101034.19;5006314;28;45545;-82
2021/08/15 10:02:02;;;;;;;;;10.50;10.50;;;;;26.81;48.75;101026.66;5006179;28;46289;-81
2021/08/15 10:04:28;;;;;;;;;12.50;12.50;;;;;26.84;49.27;101028.25;5006187;28;45798;-82
2021/08/15 10:06:56;;;;;;;;;12.25;11.50;;;;;26.91;48.99;101022.03;5006282;28;45407;-82
2021/08/15 10:09:24;;;;;;;;;13.50;12.50;;;;;26.95;48.41;101023.47;5006157;28;45439;-82
2021/08/15 10:11:50;;;;;;;;;10.25;10.25;;;;;27.03;48.74;101024.59;5006070;28;46340;-81
2021/08/15 10:14:16;;;;;;;;;13.25;12.50;;;;;27.06;48.44;101021.53;5006140;28;45393;-82
2021/08/15 10:16:56;;;;;;;;;11.00;11.00;;;;;27.09;48.72;101021.25;5006214;28;45181;-82
2021/08/15 10:19:57;;;;;;;;;16.25;14.25;;;;;27.16;48.95;101008.66;5006139;28;45411;-81
2021/08/15 10:22:30;;;;;;;;;12.00;11.50;;;;;27.21;48.28;101005.47;4984196;28;45369;-82
2021/08/15 10:24:58;;;;;;;;;13.50;12.00;;;;;27.23;47.60;101006.19;5005822;28;45161;-82
2021/08/15 10:27:38;;;;;;;;;10.75;10.75;;;;;27.26;47.12;101008.63;5006169;28;45281;-81
2021/08/15 10:30:24;;;;;;;;;11.25;11.25;;;;;27.27;47.64;100996.66;5006156;28;45162;-81
2021/08/15 10:32:55;;;;;;;;;15.00;13.00;;;;;27.29;47.89;100998.25;5005735;28;45346;-81
2021/08/15 10:35:37;;;;;;;;;10.25;9.00;;;;;27.37;47.42;100996.63;5005962;28;45289;-82
2021/08/15 10:38:15;;;;;;;;;11.75;10.75;;;;;27.42;47.00;100986.06;5005826;28;45399;-81
2021/08/15 10:40:40;;;;;;;;;12.75;12.00;;;;;27.48;47.31;100979.94;5005809;28;45540;-82
2021/08/15 10:43:21;;;;;;;;;13.00;12.00;;;;;27.51;47.00;100974.16;5005584;28;46954;-82
2021/08/15 10:46:17;;;;;;;;;24.00;22.25;;;;;27.57;47.46;100969.97;5005828;28;45569;-81
2021/08/15 10:49:00;;;;;;;;;13.00;12.75;;;;;27.62;46.55;100962.13;5005845;28;45321;-81
2021/08/15 10:51:37;;;;;;;;;9.00;9.00;;;;;27.65;44.67;100964.53;5004820;28;45303;-81
2021/08/15 10:54:03;;;;;;;;;8.00;6.75;;;;;27.64;43.97;100968.31;5001911;28;46242;-82
2021/08/15 10:56:52;;;;;;;;;7.75;7.25;;;;;27.71;44.53;100967.50;5002415;28;45232;-82
2021/08/15 10:59:32;;;;;;;;;12.75;10.25;;;;;27.77;45.20;100960.56;5002640;28;45331;-83
2021/08/15 11:02:12;;;;;;;;;14.50;13.75;;;;;27.85;45.08;100963.38;5002260;28;45265;-83
2021/08/15 11:04:40;;;;;;;;;12.00;8.50;;;;;27.91;45.03;100957.25;5002430;28;45408;-83
2021/08/15 11:07:06;;;;;;;;;13.25;13.25;;;;;28.01;45.58;100959.94;5002209;28;45707;-83
2021/08/15 11:09:55;;;;;;;;;9.00;8.25;;;;;28.09;45.08;100951.78;5002417;28;45231;-83
2021/08/15 11:12:21;;;;;;;;;9.50;9.50;;;;;28.14;44.00;100955.94;5002215;28;45326;-82
2021/08/15 11:15:02;;;;;;;;;13.00;10.25;;;;;28.14;43.47;100947.72;5002082;28;45590;-84
2021/08/15 11:17:29;;;;;;;;;11.75;10.50;;;;;28.15;43.73;100946.66;5002172;28;45422;-82
2021/08/15 11:19:55;;;;;;;;;9.00;8.50;;;;;28.16;43.79;100940.16;5000980;28;45469;-82
2021/08/15 11:22:20;;;;;;;;;10.25;9.25;;;;;28.18;43.94;100941.72;5001996;28;45267;-84
2021/08/15 11:24:48;;;;;;;;;8.00;8.00;;;;;28.19;43.70;100943.44;5001768;28;45319;-83